createdAt,value
2023-02-16T00:03:58.809Z,99414.54
2023-02-16T00:09:21.751Z,99410.20
2023-02-16T00:14:43.368Z,99408.27
2023-02-16T00:20:10.013Z,99402.72
2023-02-16T00:25:31.945Z,99401.10
2023-02-16T00:30:53.953Z,99400.71
2023-02-16T00:36:15.977Z,99403.96
2023-02-16T00:41:53.967Z,99400.42
2023-02-16T00:47:25.252Z,99389.82
2023-02-16T00:52:47.587Z,99387.90
2023-02-16T00:58:36.132Z,99383.14
2023-02-16T01:04:00.954Z,99374.91
2023-02-16T01:09:41.772Z,99371.60
2023-02-16T01:15:03.776Z,99369.52
2023-02-16T01:20:26.505Z,99362.96
2023-02-16T01:25:48.334Z,99354.29
2023-02-16T01:31:15.096Z,99356.21
2023-02-16T01:36:39.415Z,99357.06
2023-02-16T01:42:25.936Z,99357.54
2023-02-16T01:47:47.460Z,99348.79
2023-02-16T01:53:21.223Z,99336.41
2023-02-16T01:58:48.199Z,99337.73
2023-02-16T02:05:06.736Z,99342.49
2023-02-16T02:10:50.108Z,99339.70
2023-02-16T02:16:12.520Z,99339.75
2023-02-16T02:22:20.436Z,99337.34
2023-02-16T02:27:49.888Z,99344.30
2023-02-16T02:33:28.590Z,99343.55
2023-02-16T02:39:01.765Z,99337.64
2023-02-16T02:44:27.060Z,99334.10
2023-02-16T02:49:54.305Z,99338.34
2023-02-16T02:55:35.021Z,99337.90
2023-02-16T03:00:57.586Z,99335.55
2023-02-16T03:06:24.512Z,99338.48
2023-02-16T03:12:05.839Z,99335.59
2023-02-16T03:17:52.244Z,99336.99
2023-02-16T03:23:32.913Z,99329.46
2023-02-16T03:29:14.819Z,99336.00
2023-02-16T03:34:37.547Z,99329.73
2023-02-16T03:40:18.439Z,99325.73
2023-02-16T03:45:42.503Z,99323.83
2023-02-16T03:51:05.014Z,99319.95
2023-02-16T03:56:27.140Z,99318.98
2023-02-16T04:01:48.993Z,99317.89
2023-02-16T04:07:10.797Z,99313.65
2023-02-16T04:12:38.551Z,99312.33
2023-02-16T04:18:01.586Z,99309.30
2023-02-16T04:23:25.821Z,99300.44
2023-02-16T04:28:47.546Z,99298.40
2023-02-16T04:34:09.124Z,99296.41
2023-02-16T04:39:31.706Z,99292.70
2023-02-16T04:44:53.634Z,99291.52
2023-02-16T04:50:15.182Z,99290.84
2023-02-16T04:55:37.089Z,99297.59
2023-02-16T05:00:58.856Z,99294.96
2023-02-16T05:06:21.147Z,99291.52
2023-02-16T05:12:02.947Z,99289.95
2023-02-16T05:17:26.778Z,99291.39
2023-02-16T05:22:48.614Z,99283.78
2023-02-16T05:28:11.056Z,99284.22
2023-02-16T05:33:35.783Z,99280.98
2023-02-16T05:38:57.433Z,99281.08
2023-02-16T05:44:19.443Z,99287.71
2023-02-16T05:49:41.373Z,99297.61
2023-02-16T05:55:04.214Z,99299.58
2023-02-16T06:00:25.940Z,99304.11
2023-02-16T06:05:53.386Z,99315.95
2023-02-16T06:11:34.483Z,99321.20
2023-02-16T06:16:57.415Z,99322.68
2023-02-16T06:22:19.446Z,99316.71
2023-02-16T06:27:41.277Z,99323.16
2023-02-16T06:33:03.907Z,99323.65
2023-02-16T06:38:25.736Z,99324.86
2023-02-16T06:43:47.863Z,99323.98
2023-02-16T06:49:18.215Z,99327.75
2023-02-16T06:54:40.356Z,99323.17
2023-02-16T07:00:03.094Z,99325.70
2023-02-16T07:05:25.017Z,99326.55
2023-02-16T07:10:50.396Z,99330.76
2023-02-16T07:16:13.048Z,99334.52
2023-02-16T07:21:35.417Z,99330.77
2023-02-16T07:26:57.049Z,99328.77
2023-02-16T07:32:19.333Z,99330.92
2023-02-16T07:37:41.512Z,99324.16
2023-02-16T07:43:05.049Z,99331.36
2023-02-16T07:48:27.276Z,99324.63
2023-02-16T07:53:48.738Z,99317.34
2023-02-16T07:59:10.638Z,99311.58
2023-02-16T08:04:32.366Z,99308.67
2023-02-16T08:09:54.327Z,99309.77
2023-02-16T08:15:16.750Z,99306.17
2023-02-16T08:20:57.570Z,99308.67
2023-02-16T08:26:22.447Z,99303.20
2023-02-16T08:31:46.480Z,99305.86
2023-02-16T08:37:10.231Z,99315.83
2023-02-16T08:42:32.258Z,99313.70
2023-02-16T08:47:54.087Z,99312.45
2023-02-16T08:53:15.847Z,99314.52
2023-02-16T08:58:38.640Z,99314.82
2023-02-16T09:04:00.267Z,99311.80
2023-02-16T09:09:22.701Z,99314.46
2023-02-16T09:14:44.627Z,99310.15
2023-02-16T09:20:07.204Z,99314.69
2023-02-16T09:25:30.347Z,99318.02
2023-02-16T09:30:54.431Z,99324.70
2023-02-16T09:36:16.561Z,99327.63
2023-02-16T09:41:40.903Z,99322.92
2023-02-16T09:47:05.320Z,99317.29
2023-02-16T09:52:52.344Z,99315.24
2023-02-16T09:58:21.813Z,99315.92
2023-02-16T10:03:43.359Z,99314.48
2023-02-16T10:09:11.645Z,99306.04
2023-02-16T10:14:37.092Z,99297.84
2023-02-16T10:20:18.840Z,99289.77
2023-02-16T10:25:44.772Z,99280.38
2023-02-16T10:31:44.535Z,99275.92
2023-02-16T10:37:24.413Z,99274.46
2023-02-16T10:42:53.550Z,99267.67
2023-02-16T10:48:15.619Z,99249.33
2023-02-16T10:53:43.380Z,99245.05
2023-02-16T10:59:16.514Z,99239.30
2023-02-16T11:04:43.921Z,99234.52
2023-02-16T11:10:20.323Z,99220.89
2023-02-16T11:15:42.569Z,99220.83
2023-02-16T11:21:06.313Z,99214.43
2023-02-16T11:26:29.070Z,99202.48
2023-02-16T11:31:51.080Z,99194.48
2023-02-16T11:37:26.924Z,99195.29
2023-02-16T11:42:51.899Z,99195.17
2023-02-16T11:48:15.055Z,99199.55
2023-02-16T11:53:42.716Z,99191.13
2023-02-16T11:59:15.970Z,99187.48
2023-02-16T12:05:08.203Z,99181.71
2023-02-16T12:10:39.643Z,99185.48
2023-02-16T12:16:17.385Z,99186.02
2023-02-16T12:21:49.109Z,99179.86
2023-02-16T12:27:20.547Z,99169.39
2023-02-16T12:33:06.426Z,99169.98
2023-02-16T12:38:47.378Z,99169.21
2023-02-16T12:44:42.931Z,99160.49
2023-02-16T12:50:08.369Z,99154.64
2023-02-16T12:55:36.120Z,99152.77
2023-02-16T13:01:01.564Z,99148.66
2023-02-16T13:06:41.249Z,99149.00
2023-02-16T13:12:18.235Z,99148.45
2023-02-16T13:18:07.594Z,99142.08
2023-02-16T13:23:47.746Z,99132.67
2023-02-16T13:29:47.812Z,99121.89
2023-02-16T13:35:37.748Z,99121.34
2023-02-16T13:41:20.265Z,99110.52
2023-02-16T13:46:48.689Z,99105.73
2023-02-16T13:52:26.684Z,99104.38
2023-02-16T13:57:50.804Z,99100.07
2023-02-16T14:03:40.343Z,99104.16
2023-02-16T14:09:21.544Z,99109.41
2023-02-16T14:14:43.578Z,99103.99
2023-02-16T14:20:29.092Z,99101.45
2023-02-16T14:26:02.466Z,99097.62
2023-02-16T14:31:27.847Z,99105.77
2023-02-16T14:37:09.483Z,99108.26
2023-02-16T14:42:33.395Z,99107.87
2023-02-16T14:48:12.123Z,99113.02
2023-02-16T14:53:54.395Z,99118.98
2023-02-16T14:59:31.059Z,99112.80
2023-02-16T15:04:54.073Z,99102.48
2023-02-16T15:10:16.777Z,99105.81
2023-02-16T15:15:46.291Z,99115.36
2023-02-16T15:21:18.938Z,99120.95
2023-02-16T15:26:53.985Z,99122.48
2023-02-16T15:32:18.701Z,99118.66
2023-02-16T15:37:45.904Z,99110.60
2023-02-16T15:43:13.665Z,99100.85
2023-02-16T15:48:40.142Z,99095.98
2023-02-16T15:54:06.925Z,99091.94
2023-02-16T15:59:41.181Z,99091.36
2023-02-16T16:05:06.512Z,99084.48
2023-02-16T16:10:30.444Z,99092.70
2023-02-16T16:15:53.342Z,99091.00
2023-02-16T16:21:29.758Z,99090.80
2023-02-16T16:26:57.099Z,99092.77
2023-02-16T16:32:25.130Z,99087.27
2023-02-16T16:37:50.688Z,99089.64
2023-02-16T16:43:17.345Z,99093.38
2023-02-16T16:48:43.193Z,99090.25
2023-02-16T16:54:12.342Z,99095.67
2023-02-16T16:59:33.930Z,99095.84
2023-02-16T17:04:55.601Z,99095.70
2023-02-16T17:10:19.929Z,99097.23
2023-02-16T17:15:52.978Z,99104.54
2023-02-16T17:21:15.119Z,99104.42
2023-02-16T17:26:37.861Z,99109.48
2023-02-16T17:32:02.799Z,99103.36
2023-02-16T17:37:25.437Z,99094.73
2023-02-16T17:42:48.873Z,99086.09
2023-02-16T17:48:15.521Z,99089.83
2023-02-16T17:53:38.549Z,99093.83
2023-02-16T17:59:00.175Z,99092.73
2023-02-16T18:04:21.854Z,99095.85
2023-02-16T18:09:43.930Z,99100.18
2023-02-16T18:15:06.162Z,99110.48
2023-02-16T18:20:27.991Z,99113.29
2023-02-16T18:25:49.923Z,99113.81
2023-02-16T18:31:13.384Z,99110.61
2023-02-16T18:36:39.602Z,99113.35
2023-02-16T18:42:04.714Z,99115.86
2023-02-16T18:47:27.099Z,99129.11
2023-02-16T18:52:49.007Z,99130.59
2023-02-16T18:58:11.739Z,99130.11
2023-02-16T19:03:33.977Z,99132.85
2023-02-16T19:09:01.822Z,99128.66
2023-02-16T19:14:23.852Z,99133.10
2023-02-16T19:19:47.286Z,99127.84
2023-02-16T19:25:09.723Z,99127.55
2023-02-16T19:30:32.004Z,99131.56
2023-02-16T19:36:05.747Z,99128.35
2023-02-16T19:41:30.740Z,99129.20
2023-02-16T19:46:52.583Z,99123.98
2023-02-16T19:52:14.609Z,99117.00
2023-02-16T19:57:36.966Z,99114.91
2023-02-16T20:02:58.844Z,99112.33
2023-02-16T20:08:22.149Z,99115.09
2023-02-16T20:13:44.437Z,99116.73
2023-02-16T20:19:12.816Z,99121.45
2023-02-16T20:24:34.818Z,99120.25
2023-02-16T20:29:57.207Z,99123.30
2023-02-16T20:35:19.438Z,99124.91
2023-02-16T20:40:41.821Z,99123.48
2023-02-16T20:46:06.233Z,99122.73
2023-02-16T20:51:28.095Z,99125.36
2023-02-16T20:56:49.927Z,99123.87
2023-02-16T21:02:12.298Z,99123.96
2023-02-16T21:07:34.463Z,99114.71
2023-02-16T21:12:56.392Z,99114.21
2023-02-16T21:18:18.020Z,99113.46
2023-02-16T21:23:40.053Z,99112.79
2023-02-16T21:29:01.808Z,99112.30
2023-02-16T21:34:26.552Z,99108.89
2023-02-16T21:40:08.343Z,99101.76
2023-02-16T21:45:30.273Z,99104.00
2023-02-16T21:50:52.383Z,99110.00
2023-02-16T21:56:43.277Z,99109.01
2023-02-16T22:02:05.345Z,99103.16
2023-02-16T22:07:27.568Z,99108.48
2023-02-16T22:12:49.352Z,99109.65
2023-02-16T22:18:11.329Z,99103.89
2023-02-16T22:23:33.364Z,99105.15
2023-02-16T22:28:56.293Z,99105.21
2023-02-16T22:34:21.474Z,99107.38
2023-02-16T22:39:43.766Z,99110.09
2023-02-16T22:45:06.301Z,99111.23
2023-02-16T22:50:28.428Z,99113.02
2023-02-16T22:55:50.565Z,99111.48
2023-02-16T23:01:14.394Z,99116.25
2023-02-16T23:06:39.338Z,99110.92
2023-02-16T23:12:03.469Z,99111.95
2023-02-16T23:17:25.638Z,99107.34
2023-02-16T23:22:47.729Z,99102.34
2023-02-16T23:28:11.275Z,99093.74
2023-02-16T23:33:33.796Z,99087.42
2023-02-16T23:38:59.638Z,99085.13
2023-02-16T23:44:21.364Z,99075.21
2023-02-16T23:49:45.004Z,99068.95
2023-02-16T23:55:08.133Z,99069.61
